HZC979 ZSPD-RPLL
Flight info
| Callsign | HZC979 |
|---|---|
| Flight time | N/A |
| Altitude | 33000 |
| Route | HSN81D HSN W13 BEGMO M503 TOLAK/N0494F311 M503 LAPUG/K0917S0950 R200 BEBEM/N0495F311 A470 DOTMI DCT ENROM DCT NOMAN A461 AVMUP W16 TADEL |
| Aircraft | B77L/H-SDE1E2E3FGHIJ2J3J4J5M1RWXY/LB1D1 |
Departure
| Time | N/A |
|---|---|
| Airport | Shanghai Pudong International Airport (ZSPD) |
Arrival
| Time | 2026-05-01 08:24 |
|---|---|
| Airport | Ninoy Aquino International Airport (RPLL) |
| Time | Latitude | Longitude | Altitude | Speed | Heading |
|---|---|---|---|---|---|
| 2026-05-01 07:23 | 19.95904 | 116.71684 | 32933 ft | 507 kts | 136° |
| 2026-05-01 07:24 | 19.88803 | 116.80065 | 32931 ft | 509 kts | 134° |
| 2026-05-01 07:24 | 19.84085 | 116.85649 | 32937 ft | 509 kts | 135° |
| 2026-05-01 07:25 | 19.79300 | 116.91219 | 32932 ft | 509 kts | 135° |
| 2026-05-01 07:25 | 19.74510 | 116.96755 | 32931 ft | 509 kts | 135° |
| 2026-05-01 07:26 | 19.69719 | 117.02286 | 32931 ft | 509 kts | 135° |
| 2026-05-01 07:26 | 19.64932 | 117.07813 | 32932 ft | 509 kts | 135° |
| 2026-05-01 07:27 | 19.60130 | 117.13354 | 32932 ft | 509 kts | 135° |
| 2026-05-01 07:27 | 19.55339 | 117.18877 | 32922 ft | 509 kts | 135° |
| 2026-05-01 07:28 | 19.50552 | 117.24391 | 32928 ft | 508 kts | 135° |
| 2026-05-01 07:28 | 19.45759 | 117.29906 | 32928 ft | 508 kts | 135° |
| 2026-05-01 07:29 | 19.40964 | 117.35418 | 32926 ft | 509 kts | 135° |
| 2026-05-01 07:29 | 19.36169 | 117.40925 | 32929 ft | 509 kts | 135° |
| 2026-05-01 07:30 | 19.31366 | 117.46435 | 32929 ft | 509 kts | 135° |
| 2026-05-01 07:30 | 19.26572 | 117.51931 | 32922 ft | 508 kts | 136° |
| 2026-05-01 07:31 | 19.21773 | 117.57427 | 32913 ft | 508 kts | 135° |
| 2026-05-01 07:32 | 19.09779 | 117.71144 | 32917 ft | 508 kts | 135° |
| 2026-05-01 07:33 | 19.02580 | 117.79363 | 32921 ft | 508 kts | 136° |
| 2026-05-01 07:33 | 18.95375 | 117.87560 | 32917 ft | 508 kts | 136° |
| 2026-05-01 07:34 | 18.88164 | 117.95754 | 32916 ft | 508 kts | 136° |
| 2026-05-01 07:35 | 18.83454 | 118.01104 | 32904 ft | 508 kts | 136° |
| 2026-05-01 07:35 | 18.78676 | 118.06525 | 32923 ft | 508 kts | 136° |
| 2026-05-01 07:36 | 18.73831 | 118.12017 | 32916 ft | 508 kts | 136° |
| 2026-05-01 07:36 | 18.69048 | 118.17434 | 32905 ft | 507 kts | 136° |
| 2026-05-01 07:37 | 18.61803 | 118.25631 | 32917 ft | 507 kts | 136° |
| 2026-05-01 07:37 | 18.57025 | 118.31030 | 32901 ft | 507 kts | 136° |
| 2026-05-01 07:38 | 18.52215 | 118.36461 | 32895 ft | 507 kts | 136° |
| 2026-05-01 07:39 | 18.45002 | 118.44596 | 32901 ft | 506 kts | 136° |
| 2026-05-01 07:39 | 18.37788 | 118.52721 | 32900 ft | 506 kts | 136° |
| 2026-05-01 07:40 | 18.33052 | 118.58049 | 32901 ft | 506 kts | 136° |
| 2026-05-01 07:40 | 18.32768 | 118.58369 | 32901 ft | 506 kts | 136° |
| 2026-05-01 07:41 | 18.27968 | 118.63765 | 32900 ft | 506 kts | 136° |
| 2026-05-01 07:42 | 18.21561 | 118.70960 | 32904 ft | 506 kts | 136° |
| 2026-05-01 07:42 | 18.16748 | 118.76360 | 32896 ft | 506 kts | 136° |
| 2026-05-01 07:43 | 18.11938 | 118.81753 | 32897 ft | 506 kts | 136° |
| 2026-05-01 07:43 | 18.04717 | 118.89840 | 32895 ft | 506 kts | 136° |
| 2026-05-01 07:44 | 17.93966 | 118.99118 | 32891 ft | 498 kts | 154° |
| 2026-05-01 07:45 | 17.88006 | 119.02530 | 32888 ft | 498 kts | 155° |
| 2026-05-01 07:45 | 17.81898 | 119.06003 | 32888 ft | 499 kts | 155° |
| 2026-05-01 07:46 | 17.75810 | 119.09502 | 32878 ft | 499 kts | 154° |
| 2026-05-01 07:47 | 17.66673 | 119.14788 | 32892 ft | 500 kts | 154° |
| 2026-05-01 07:47 | 17.60586 | 119.18308 | 32888 ft | 500 kts | 154° |
| 2026-05-01 07:48 | 17.51440 | 119.23590 | 32885 ft | 501 kts | 154° |
| 2026-05-01 07:48 | 17.45335 | 119.27111 | 32881 ft | 501 kts | 154° |
| 2026-05-01 07:49 | 17.36174 | 119.32389 | 32882 ft | 501 kts | 154° |
| 2026-05-01 07:50 | 17.30073 | 119.35901 | 32880 ft | 501 kts | 154° |
| 2026-05-01 07:50 | 17.20908 | 119.41172 | 32877 ft | 501 kts | 154° |
| 2026-05-01 07:51 | 17.14795 | 119.44684 | 32876 ft | 501 kts | 154° |
| 2026-05-01 07:52 | 17.05631 | 119.49945 | 32871 ft | 501 kts | 154° |
| 2026-05-01 07:52 | 16.99570 | 119.53421 | 32878 ft | 501 kts | 154° |
| 2026-05-01 07:53 | 16.90406 | 119.58671 | 32872 ft | 501 kts | 154° |
| 2026-05-01 07:53 | 16.84298 | 119.62167 | 32876 ft | 501 kts | 154° |
| 2026-05-01 07:55 | 16.68987 | 119.70920 | 32873 ft | 500 kts | 154° |
| 2026-05-01 07:56 | 16.53771 | 119.79602 | 32874 ft | 500 kts | 154° |
| 2026-05-01 07:57 | 16.44626 | 119.84813 | 32876 ft | 499 kts | 155° |
| 2026-05-01 07:58 | 16.32441 | 119.91747 | 32882 ft | 499 kts | 155° |
| 2026-05-01 07:59 | 16.20256 | 119.98671 | 32882 ft | 498 kts | 155° |
| 2026-05-01 08:00 | 16.02266 | 120.08879 | 31274 ft | 485 kts | 154° |
| 2026-05-01 08:01 | 15.93487 | 120.13852 | 29730 ft | 474 kts | 154° |
| 2026-05-01 08:01 | 15.90601 | 120.15485 | 29146 ft | 471 kts | 153° |
| 2026-05-01 08:01 | 15.87741 | 120.17104 | 28629 ft | 467 kts | 153° |
| 2026-05-01 08:02 | 15.82074 | 120.20309 | 27586 ft | 459 kts | 153° |
| 2026-05-01 08:02 | 15.79287 | 120.21884 | 27073 ft | 456 kts | 153° |
| 2026-05-01 08:03 | 15.73749 | 120.25013 | 26071 ft | 450 kts | 153° |
| 2026-05-01 08:03 | 15.71011 | 120.26559 | 25570 ft | 447 kts | 153° |
| 2026-05-01 08:03 | 15.65595 | 120.29619 | 24552 ft | 435 kts | 152° |
| 2026-05-01 08:04 | 15.60411 | 120.32550 | 23610 ft | 419 kts | 152° |
| 2026-05-01 08:04 | 15.55308 | 120.35434 | 22587 ft | 415 kts | 152° |
| 2026-05-01 08:05 | 15.50372 | 120.38223 | 22038 ft | 400 kts | 152° |
| 2026-05-01 08:05 | 15.47951 | 120.39592 | 21846 ft | 391 kts | 152° |
| 2026-05-01 08:05 | 15.45590 | 120.40929 | 21677 ft | 382 kts | 152° |
| 2026-05-01 08:06 | 15.41023 | 120.43473 | 21325 ft | 364 kts | 156° |
| 2026-05-01 08:06 | 15.36284 | 120.45145 | 20533 ft | 361 kts | 164° |
| 2026-05-01 08:07 | 15.31484 | 120.46539 | 19720 ft | 351 kts | 163° |
| 2026-05-01 08:07 | 15.26916 | 120.47922 | 18947 ft | 334 kts | 162° |
| 2026-05-01 08:08 | 15.24719 | 120.48607 | 18574 ft | 328 kts | 162° |
| 2026-05-01 08:08 | 15.20331 | 120.49988 | 17784 ft | 330 kts | 161° |
| 2026-05-01 08:09 | 15.15968 | 120.51369 | 17022 ft | 329 kts | 162° |
| 2026-05-01 08:09 | 15.15935 | 120.51380 | 17013 ft | 329 kts | 162° |
| 2026-05-01 08:10 | 15.11644 | 120.52740 | 16271 ft | 329 kts | 161° |
| 2026-05-01 08:10 | 15.07281 | 120.54125 | 15524 ft | 331 kts | 161° |
| 2026-05-01 08:11 | 15.02879 | 120.55519 | 14754 ft | 328 kts | 161° |
| 2026-05-01 08:11 | 14.98631 | 120.56862 | 14016 ft | 311 kts | 161° |
| 2026-05-01 08:12 | 14.94588 | 120.58142 | 13307 ft | 301 kts | 161° |
| 2026-05-01 08:12 | 14.92580 | 120.58777 | 12949 ft | 301 kts | 161° |
| 2026-05-01 08:12 | 14.88574 | 120.60045 | 12249 ft | 302 kts | 161° |
| 2026-05-01 08:13 | 14.86566 | 120.60680 | 11904 ft | 302 kts | 161° |
| 2026-05-01 08:13 | 14.84559 | 120.61314 | 11573 ft | 301 kts | 161° |
| 2026-05-01 08:13 | 14.80590 | 120.62569 | 10999 ft | 298 kts | 161° |
| 2026-05-01 08:14 | 14.78609 | 120.63196 | 10669 ft | 298 kts | 161° |
| 2026-05-01 08:14 | 14.76633 | 120.63820 | 10340 ft | 298 kts | 161° |
| 2026-05-01 08:14 | 14.74662 | 120.64442 | 10155 ft | 292 kts | 161° |
| 2026-05-01 08:14 | 14.72742 | 120.65048 | 9952 ft | 287 kts | 161° |
| 2026-05-01 08:15 | 14.70829 | 120.65653 | 9607 ft | 287 kts | 161° |
| 2026-05-01 08:15 | 14.66969 | 120.66873 | 8910 ft | 293 kts | 161° |
| 2026-05-01 08:15 | 14.65015 | 120.67489 | 8545 ft | 295 kts | 161° |
| 2026-05-01 08:16 | 14.63065 | 120.68104 | 8246 ft | 294 kts | 161° |
| 2026-05-01 08:16 | 14.61107 | 120.68781 | 8014 ft | 294 kts | 154° |
| 2026-05-01 08:16 | 14.59326 | 120.69761 | 7857 ft | 285 kts | 147° |
| 2026-05-01 08:16 | 14.57679 | 120.70789 | 7323 ft | 273 kts | 147° |
| 2026-05-01 08:17 | 14.56093 | 120.71763 | 7000 ft | 254 kts | 148° |
| 2026-05-01 08:17 | 14.54630 | 120.72638 | 6826 ft | 233 kts | 148° |
| 2026-05-01 08:17 | 14.53234 | 120.73463 | 6582 ft | 231 kts | 148° |
| 2026-05-01 08:17 | 14.51844 | 120.74282 | 6310 ft | 229 kts | 148° |
| 2026-05-01 08:18 | 14.50463 | 120.75096 | 6036 ft | 230 kts | 148° |
| 2026-05-01 08:18 | 14.47670 | 120.76737 | 5477 ft | 231 kts | 148° |
| 2026-05-01 08:19 | 14.44863 | 120.78384 | 4911 ft | 233 kts | 148° |
| 2026-05-01 08:19 | 14.43459 | 120.79205 | 4659 ft | 231 kts | 147° |
| 2026-05-01 08:19 | 14.42045 | 120.80047 | 4378 ft | 239 kts | 141° |
| 2026-05-01 08:19 | 14.41054 | 120.81353 | 4080 ft | 230 kts | 111° |
| 2026-05-01 08:20 | 14.40624 | 120.82916 | 3675 ft | 226 kts | 90° |
| 2026-05-01 08:20 | 14.41036 | 120.84413 | 3373 ft | 216 kts | 60° |
| 2026-05-01 08:20 | 14.41811 | 120.85731 | 3141 ft | 215 kts | 62° |
| 2026-05-01 08:20 | 14.42535 | 120.87016 | 2930 ft | 217 kts | 61° |
| 2026-05-01 08:21 | 14.43280 | 120.88344 | 2611 ft | 209 kts | 62° |
| 2026-05-01 08:21 | 14.43977 | 120.89590 | 2335 ft | 192 kts | 61° |
| 2026-05-01 08:21 | 14.44631 | 120.90762 | 2055 ft | 187 kts | 61° |
| 2026-05-01 08:21 | 14.45276 | 120.91920 | 1822 ft | 188 kts | 61° |
| 2026-05-01 08:22 | 14.45926 | 120.93084 | 1657 ft | 189 kts | 61° |
| 2026-05-01 08:22 | 14.46577 | 120.94244 | 1504 ft | 185 kts | 61° |
| 2026-05-01 08:22 | 14.47215 | 120.95372 | 1141 ft | 184 kts | 59° |
| 2026-05-01 08:22 | 14.47846 | 120.96466 | 883 ft | 172 kts | 62° |
| 2026-05-01 08:23 | 14.48431 | 120.97528 | 623 ft | 164 kts | 64° |
| 2026-05-01 08:23 | 14.48967 | 120.98510 | 420 ft | 150 kts | 63° |
| 2026-05-01 08:23 | 14.49490 | 120.99457 | 280 ft | 155 kts | 63° |
| 2026-05-01 08:23 | 14.49986 | 121.00362 | 94 ft | 155 kts | 63° |
| 2026-05-01 08:24 | 14.50482 | 121.01260 | 66 ft | 132 kts | 60° |
| 2026-05-01 08:24 | 14.50775 | 121.01789 | 62 ft | 59 kts | 60° |
| 2026-05-01 08:24 | 14.50924 | 121.01997 | 68 ft | 15 kts | 11° |
| 2026-05-01 08:24 | 14.50997 | 121.01959 | 65 ft | 9 kts | 315° |
| 2026-05-01 08:25 | 14.51042 | 121.01911 | 65 ft | 9 kts | 314° |
| 2026-05-01 08:25 | 14.51073 | 121.01879 | 67 ft | 9 kts | 314° |
| 2026-05-01 08:25 | 14.51135 | 121.01815 | 65 ft | 9 kts | 315° |
| 2026-05-01 08:25 | 14.51181 | 121.01768 | 63 ft | 9 kts | 315° |
| 2026-05-01 08:26 | 14.51236 | 121.01712 | 65 ft | 13 kts | 315° |
| 2026-05-01 08:26 | 14.51302 | 121.01644 | 62 ft | 11 kts | 315° |
| 2026-05-01 08:26 | 14.51337 | 121.01608 | 66 ft | 11 kts | 316° |
| 2026-05-01 08:26 | 14.51367 | 121.01547 | 66 ft | 6 kts | 256° |
| 2026-05-01 08:27 | 14.51345 | 121.01508 | 65 ft | 8 kts | 234° |
| 2026-05-01 08:27 | 14.51318 | 121.01471 | 67 ft | 11 kts | 232° |
| 2026-05-01 08:27 | 14.51230 | 121.01445 | 63 ft | 11 kts | 153° |
| 2026-05-01 08:27 | 14.51188 | 121.01479 | 64 ft | 11 kts | 134° |
| 2026-05-01 08:28 | 14.51132 | 121.01537 | 64 ft | 11 kts | 135° |
| 2026-05-01 08:28 | 14.51075 | 121.01595 | 64 ft | 11 kts | 135° |
| 2026-05-01 08:28 | 14.51019 | 121.01653 | 67 ft | 11 kts | 135° |
| 2026-05-01 08:28 | 14.50945 | 121.01725 | 63 ft | 9 kts | 148° |
| 2026-05-01 08:29 | 14.50906 | 121.01728 | 64 ft | 8 kts | 208° |
| 2026-05-01 08:29 | 14.50877 | 121.01690 | 65 ft | 5 kts | 249° |
| 2026-05-01 08:29 | 14.50893 | 121.01665 | 64 ft | 6 kts | 314° |